createdAt,value
2022-11-15T00:00:01.063Z,1015.19
2022-11-15T00:01:01.450Z,1015.16
2022-11-15T00:02:02.243Z,1015.18
2022-11-15T00:03:01.548Z,1015.14
2022-11-15T00:04:08.579Z,1015.16
2022-11-15T00:05:01.133Z,1015.19
2022-11-15T00:06:03.814Z,1015.17
2022-11-15T00:07:01.372Z,1015.16
2022-11-15T00:08:04.805Z,1015.16
2022-11-15T00:09:01.076Z,1015.1
2022-11-15T00:10:01.150Z,1015.12
2022-11-15T00:11:03.966Z,1015.08
2022-11-15T00:12:01.101Z,1015.08
2022-11-15T00:13:01.126Z,1015.04
2022-11-15T00:14:01.179Z,1015.05
2022-11-15T00:15:01.114Z,1015.07
2022-11-15T00:16:01.140Z,1015.08
2022-11-15T00:17:01.837Z,1015.09
2022-11-15T00:18:01.428Z,1015.1
2022-11-15T00:19:01.378Z,1015.07
2022-11-15T00:20:02.019Z,1015.06
2022-11-15T00:21:02.067Z,1015.04
2022-11-15T00:22:01.965Z,1015.02
2022-11-15T00:23:01.059Z,1015.03
2022-11-15T00:24:01.070Z,1014.94
2022-11-15T00:25:01.101Z,1014.94
2022-11-15T00:26:01.087Z,1014.94
2022-11-15T00:27:01.303Z,1015
2022-11-15T00:28:01.106Z,1014.96
2022-11-15T00:29:01.133Z,1014.97
2022-11-15T00:30:01.531Z,1015
2022-11-15T00:31:01.127Z,1014.93
2022-11-15T00:32:01.133Z,1015
2022-11-15T00:33:01.194Z,1014.96
2022-11-15T00:34:01.154Z,1014.94
2022-11-15T00:35:01.147Z,1014.89
2022-11-15T00:36:01.145Z,1014.95
2022-11-15T00:37:01.070Z,1014.89
2022-11-15T00:38:01.061Z,1014.89
2022-11-15T00:39:01.103Z,1014.87
2022-11-15T00:40:01.122Z,1014.85
2022-11-15T00:41:06.254Z,1014.89
2022-11-15T00:42:01.774Z,1014.88
2022-11-15T00:43:01.100Z,1014.85
2022-11-15T00:44:01.104Z,1014.9
2022-11-15T00:45:01.781Z,1014.83
2022-11-15T00:46:01.782Z,1014.82
2022-11-15T00:47:01.127Z,1014.82
2022-11-15T00:48:01.172Z,1014.82
2022-11-15T00:49:01.159Z,1014.79
2022-11-15T00:50:01.132Z,1014.8
2022-11-15T00:51:01.275Z,1014.78
2022-11-15T00:52:01.138Z,1014.75
2022-11-15T00:53:01.157Z,1014.73
2022-11-15T00:54:00.473Z,1014.71
2022-11-15T00:55:00.032Z,1014.71
2022-11-15T00:55:59.630Z,1014.75
2022-11-15T00:57:01.810Z,1014.73
2022-11-15T00:58:01.084Z,1014.72
2022-11-15T00:59:01.193Z,1014.71
2022-11-15T01:00:01.499Z,1014.71
2022-11-15T01:01:01.160Z,1014.66
2022-11-15T01:02:01.115Z,1014.66
2022-11-15T01:03:01.130Z,1014.63
2022-11-15T01:04:01.687Z,1014.62
2022-11-15T01:05:01.120Z,1014.7
2022-11-15T01:06:00.821Z,1014.64
2022-11-15T01:07:00.652Z,1014.64
2022-11-15T01:08:00.564Z,1014.64
2022-11-15T01:09:00.214Z,1014.55
2022-11-15T01:09:59.827Z,1014.6
2022-11-15T01:11:02.123Z,1014.6
2022-11-15T01:12:01.174Z,1014.61
2022-11-15T01:13:01.075Z,1014.65
2022-11-15T01:14:01.114Z,1014.66
2022-11-15T01:15:01.223Z,1014.64
2022-11-15T01:16:05.413Z,1014.54
2022-11-15T01:17:01.507Z,1014.54
2022-11-15T01:18:01.380Z,1014.57
2022-11-15T01:19:02.540Z,1014.57
2022-11-15T01:20:02.687Z,1014.54
2022-11-15T01:21:08.413Z,1014.56
2022-11-15T01:22:02.660Z,1014.52
2022-11-15T01:23:01.259Z,1014.59
2022-11-15T01:24:01.168Z,1014.57
2022-11-15T01:25:01.916Z,1014.63
2022-11-15T01:26:11.071Z,1014.55
2022-11-15T01:27:02.014Z,1014.57
2022-11-15T01:28:01.889Z,1014.55
2022-11-15T01:29:00.695Z,1014.54
2022-11-15T01:30:00.271Z,1014.44
2022-11-15T01:31:13.008Z,1014.5
2022-11-15T01:32:01.092Z,1014.52
2022-11-15T01:33:01.120Z,1014.46
2022-11-15T01:34:01.115Z,1014.44
2022-11-15T01:35:01.103Z,1014.45
2022-11-15T01:36:16.840Z,1014.46
2022-11-15T01:37:02.321Z,1014.46
2022-11-15T01:38:01.160Z,1014.49
2022-11-15T01:39:01.150Z,1014.46
2022-11-15T01:40:01.144Z,1014.41
2022-11-15T01:41:01.233Z,1014.36
2022-11-15T01:42:01.986Z,1014.38
2022-11-15T01:43:02.127Z,1014.34
2022-11-15T01:44:02.790Z,1014.32
2022-11-15T01:45:01.067Z,1014.33
2022-11-15T01:46:01.053Z,1014.34
2022-11-15T01:47:01.088Z,1014.31
2022-11-15T01:48:01.052Z,1014.27
2022-11-15T01:49:01.120Z,1014.25
2022-11-15T01:50:01.323Z,1014.21
2022-11-15T01:51:01.882Z,1014.18
2022-11-15T01:52:01.544Z,1014.21
2022-11-15T01:53:00.651Z,1014.2
2022-11-15T01:54:00.256Z,1014.18
2022-11-15T01:54:59.949Z,1014.21
2022-11-15T01:55:59.620Z,1014.17
2022-11-15T01:57:01.181Z,1014.19
2022-11-15T01:58:01.448Z,1014.17
2022-11-15T01:59:02.150Z,1014.13
2022-11-15T02:00:01.264Z,1014.12
2022-11-15T02:01:01.933Z,1014.11
2022-11-15T02:02:01.895Z,1014.11
2022-11-15T02:03:01.188Z,1014.09
2022-11-15T02:04:01.094Z,1014.08
2022-11-15T02:05:01.092Z,1014.1
2022-11-15T02:06:01.109Z,1014.1
2022-11-15T02:07:01.175Z,1014.11
2022-11-15T02:08:01.143Z,1014.14
2022-11-15T02:09:01.141Z,1014.06
2022-11-15T02:10:01.430Z,1014.1
2022-11-15T02:11:01.130Z,1014.05
2022-11-15T02:12:01.300Z,1014.03
2022-11-15T02:13:01.205Z,1014
2022-11-15T02:14:02.125Z,1014.01
2022-11-15T02:15:01.170Z,1014.07
2022-11-15T02:16:03.313Z,1014.05
2022-11-15T02:17:01.069Z,1014.04
2022-11-15T02:18:01.123Z,1013.99
2022-11-15T02:19:01.797Z,1014.01
2022-11-15T02:20:01.203Z,1014.03
2022-11-15T02:21:01.042Z,1013.94
2022-11-15T02:22:01.107Z,1014.02
2022-11-15T02:23:01.124Z,1014.04
2022-11-15T02:24:01.047Z,1014.02
2022-11-15T02:25:01.124Z,1014
2022-11-15T02:26:01.209Z,1014.04
2022-11-15T02:27:01.511Z,1014.07
2022-11-15T02:28:01.524Z,1014.06
2022-11-15T02:29:01.183Z,1014
2022-11-15T02:30:01.353Z,1013.97
2022-11-15T02:31:01.094Z,1013.94
2022-11-15T02:32:01.096Z,1013.94
2022-11-15T02:33:01.075Z,1013.97
2022-11-15T02:34:01.105Z,1013.95
2022-11-15T02:35:01.206Z,1013.94
2022-11-15T02:36:01.479Z,1013.9
2022-11-15T02:37:01.108Z,1013.9
2022-11-15T02:38:01.050Z,1013.87
2022-11-15T02:39:01.117Z,1013.86
2022-11-15T02:40:01.231Z,1013.84
2022-11-15T02:41:01.117Z,1013.87
2022-11-15T02:42:01.522Z,1013.87
2022-11-15T02:43:05.644Z,1013.87
2022-11-15T02:44:01.137Z,1013.82
2022-11-15T02:45:01.227Z,1013.82
2022-11-15T02:46:01.215Z,1013.83
2022-11-15T02:47:01.079Z,1013.82
2022-11-15T02:48:01.102Z,1013.8
2022-11-15T02:49:00.768Z,1013.81
2022-11-15T02:50:00.477Z,1013.78
2022-11-15T02:51:00.261Z,1013.76
2022-11-15T02:52:01.415Z,1013.78
2022-11-15T02:53:02.157Z,1013.74
2022-11-15T02:54:01.118Z,1013.75
2022-11-15T02:55:01.111Z,1013.74
2022-11-15T02:56:01.155Z,1013.7
2022-11-15T02:57:03.699Z,1013.74
2022-11-15T02:58:01.156Z,1013.75
2022-11-15T02:59:01.159Z,1013.77
2022-11-15T03:00:02.572Z,1013.76
2022-11-15T03:01:01.998Z,1013.74
2022-11-15T03:02:05.710Z,1013.75
2022-11-15T03:03:01.328Z,1013.75
2022-11-15T03:04:01.149Z,1013.75
2022-11-15T03:05:01.065Z,1013.71
2022-11-15T03:06:01.067Z,1013.71
2022-11-15T03:07:09.536Z,1013.65
2022-11-15T03:08:02.710Z,1013.66
2022-11-15T03:09:01.868Z,1013.66
2022-11-15T03:10:01.473Z,1013.67
2022-11-15T03:11:01.507Z,1013.7
2022-11-15T03:12:12.654Z,1013.66
2022-11-15T03:13:01.145Z,1013.63
2022-11-15T03:14:01.786Z,1013.65
2022-11-15T03:15:01.139Z,1013.62
2022-11-15T03:16:01.188Z,1013.59
2022-11-15T03:17:15.288Z,1013.63
2022-11-15T03:18:01.181Z,1013.55
2022-11-15T03:19:01.791Z,1013.59
2022-11-15T03:20:01.162Z,1013.53
2022-11-15T03:21:03.863Z,1013.51
2022-11-15T03:22:01.482Z,1013.5
2022-11-15T03:23:01.083Z,1013.51
2022-11-15T03:24:01.561Z,1013.52
2022-11-15T03:25:01.090Z,1013.51
2022-11-15T03:26:01.091Z,1013.56
2022-11-15T03:27:01.783Z,1013.53
2022-11-15T03:28:01.499Z,1013.53
2022-11-15T03:29:01.117Z,1013.53
2022-11-15T03:30:01.149Z,1013.5
2022-11-15T03:31:01.125Z,1013.51
2022-11-15T03:32:01.128Z,1013.44
2022-11-15T03:33:01.749Z,1013.48
2022-11-15T03:34:01.041Z,1013.45
2022-11-15T03:35:01.047Z,1013.39
2022-11-15T03:36:01.216Z,1013.44
2022-11-15T03:37:01.232Z,1013.47
2022-11-15T03:38:01.252Z,1013.5
2022-11-15T03:39:02.546Z,1013.51
2022-11-15T03:40:01.996Z,1013.53
2022-11-15T03:41:01.225Z,1013.44
2022-11-15T03:42:01.058Z,1013.44
2022-11-15T03:43:01.123Z,1013.47
2022-11-15T03:44:01.472Z,1013.48
2022-11-15T03:45:01.822Z,1013.48
2022-11-15T03:46:01.952Z,1013.41
2022-11-15T03:47:01.236Z,1013.39
2022-11-15T03:48:01.081Z,1013.41
2022-11-15T03:49:01.224Z,1013.38
2022-11-15T03:50:01.229Z,1013.38
2022-11-15T03:51:01.356Z,1013.36
2022-11-15T03:52:01.351Z,1013.32
2022-11-15T03:53:02.780Z,1013.31
2022-11-15T03:54:01.836Z,1013.34
2022-11-15T03:55:01.758Z,1013.31
2022-11-15T03:56:04.567Z,1013.31
2022-11-15T03:57:01.204Z,1013.32
2022-11-15T03:58:02.534Z,1013.29
2022-11-15T03:59:01.395Z,1013.26
2022-11-15T04:00:08.201Z,1013.27
2022-11-15T04:01:02.245Z,1013.27
2022-11-15T04:02:01.152Z,1013.24
2022-11-15T04:03:01.138Z,1013.3
2022-11-15T04:04:00.726Z,1013.31
2022-11-15T04:05:00.314Z,1013.3
2022-11-15T04:05:59.901Z,1013.32
2022-11-15T04:06:59.819Z,1013.33
2022-11-15T04:08:01.460Z,1013.33
2022-11-15T04:09:01.058Z,1013.33
2022-11-15T04:10:01.089Z,1013.32
2022-11-15T04:11:02.423Z,1013.32
2022-11-15T04:12:01.876Z,1013.29
2022-11-15T04:13:01.829Z,1013.35
2022-11-15T04:14:01.245Z,1013.31
2022-11-15T04:15:01.105Z,1013.3
2022-11-15T04:16:07.862Z,1013.28
2022-11-15T04:17:02.037Z,1013.28
2022-11-15T04:18:01.251Z,1013.25
2022-11-15T04:19:01.553Z,1013.32
2022-11-15T04:20:00.925Z,1013.31
2022-11-15T04:21:00.898Z,1013.31
2022-11-15T04:22:01.150Z,1013.26
2022-11-15T04:23:01.157Z,1013.29
2022-11-15T04:24:01.436Z,1013.3
2022-11-15T04:25:02.488Z,1013.28
2022-11-15T04:26:01.124Z,1013.26
2022-11-15T04:27:01.120Z,1013.26
2022-11-15T04:28:01.126Z,1013.26
2022-11-15T04:29:00.784Z,1013.26
2022-11-15T04:30:00.377Z,1013.23
2022-11-15T04:31:00.038Z,1013.23
2022-11-15T04:32:00.045Z,1013.25
2022-11-15T04:33:01.221Z,1013.2
2022-11-15T04:34:03.933Z,1013.24
2022-11-15T04:35:01.161Z,1013.24
2022-11-15T04:36:01.128Z,1013.28
2022-11-15T04:37:01.065Z,1013.28
2022-11-15T04:38:05.579Z,1013.27
2022-11-15T04:39:01.532Z,1013.32
2022-11-15T04:40:01.291Z,1013.25
2022-11-15T04:41:01.994Z,1013.28
2022-11-15T04:42:01.120Z,1013.24
2022-11-15T04:43:10.485Z,1013.26
2022-11-15T04:44:00.772Z,1013.21
2022-11-15T04:45:00.335Z,1013.24
2022-11-15T04:45:59.950Z,1013.27
2022-11-15T04:46:59.552Z,1013.24
2022-11-15T04:48:14.197Z,1013.27
2022-11-15T04:49:01.143Z,1013.31
2022-11-15T04:50:01.520Z,1013.29
2022-11-15T04:51:01.246Z,1013.29
2022-11-15T04:52:01.684Z,1013.32
2022-11-15T04:53:01.407Z,1013.29
2022-11-15T04:54:02.055Z,1013.25
2022-11-15T04:55:07.891Z,1013.36
2022-11-15T04:56:01.148Z,1013.3
2022-11-15T04:57:01.247Z,1013.31
2022-11-15T04:58:01.471Z,1013.26
2022-11-15T04:59:01.067Z,1013.33
2022-11-15T05:00:01.042Z,1013.27
2022-11-15T05:01:01.887Z,1013.29
2022-11-15T05:02:01.315Z,1013.29
2022-11-15T05:03:01.341Z,1013.26
2022-11-15T05:04:02.229Z,1013.28
2022-11-15T05:05:01.954Z,1013.31
2022-11-15T05:06:01.411Z,1013.24
2022-11-15T05:07:02.172Z,1013.24
2022-11-15T05:08:01.379Z,1013.26
2022-11-15T05:09:01.136Z,1013.24
2022-11-15T05:10:01.538Z,1013.27
2022-11-15T05:11:01.192Z,1013.2
2022-11-15T05:12:01.779Z,1013.22
2022-11-15T05:13:02.148Z,1013.25
2022-11-15T05:14:02.163Z,1013.2
2022-11-15T05:15:01.843Z,1013.2
2022-11-15T05:16:01.862Z,1013.17
2022-11-15T05:17:01.826Z,1013.14
2022-11-15T05:18:01.123Z,1013.19
2022-11-15T05:19:01.495Z,1013.17
2022-11-15T05:20:01.126Z,1013.18
2022-11-15T05:21:01.104Z,1013.19
2022-11-15T05:22:01.111Z,1013.19
2022-11-15T05:23:01.125Z,1013.17
2022-11-15T05:24:00.869Z,1013.18
2022-11-15T05:25:01.284Z,1013.17
2022-11-15T05:26:06.405Z,1013.16
2022-11-15T05:27:01.148Z,1013.18
2022-11-15T05:28:01.158Z,1013.19
2022-11-15T05:29:01.160Z,1013.19
2022-11-15T05:30:01.592Z,1013.16
2022-11-15T05:31:01.329Z,1013.19
2022-11-15T05:32:01.066Z,1013.15
2022-11-15T05:33:01.112Z,1013.14
2022-11-15T05:34:01.108Z,1013.12
2022-11-15T05:35:01.527Z,1013.13
2022-11-15T05:36:01.742Z,1013.15
2022-11-15T05:37:01.116Z,1013.1
2022-11-15T05:38:01.162Z,1013.13
2022-11-15T05:39:01.160Z,1013.16
2022-11-15T05:40:01.438Z,1013.17
2022-11-15T05:41:01.483Z,1013.19
2022-11-15T05:42:01.330Z,1013.21
2022-11-15T05:43:01.319Z,1013.15
2022-11-15T05:44:01.146Z,1013.2
2022-11-15T05:45:01.069Z,1013.16
2022-11-15T05:46:01.067Z,1013.2
2022-11-15T05:47:01.257Z,1013.14
2022-11-15T05:48:01.150Z,1013.15
2022-11-15T05:49:01.096Z,1013.09
2022-11-15T05:50:01.508Z,1013.09
2022-11-15T05:51:01.655Z,1013.07
2022-11-15T05:52:02.143Z,1013.09
2022-11-15T05:53:05.339Z,1013.11
2022-11-15T05:54:01.189Z,1013.07
2022-11-15T05:55:02.025Z,1013.04
2022-11-15T05:56:01.110Z,1013.08
2022-11-15T05:57:01.060Z,1013.07
2022-11-15T05:58:01.071Z,1013.13
2022-11-15T05:59:01.169Z,1013.11
2022-11-15T06:00:02.500Z,1013.07
2022-11-15T06:01:01.190Z,1013.07
2022-11-15T06:02:01.228Z,1013.1
2022-11-15T06:03:01.374Z,1013.07
2022-11-15T06:04:01.883Z,1013.06
2022-11-15T06:05:02.079Z,1013.08
2022-11-15T06:06:02.103Z,1013.03
2022-11-15T06:07:01.196Z,1013.06
2022-11-15T06:08:01.115Z,1013.05
2022-11-15T06:09:04.941Z,1013.05
2022-11-15T06:10:01.465Z,1013.04
2022-11-15T06:11:01.510Z,1013.1
2022-11-15T06:12:00.857Z,1013.1
2022-11-15T06:13:01.239Z,1013.08
2022-11-15T06:14:07.890Z,1013.11
2022-11-15T06:15:01.194Z,1013.08
2022-11-15T06:16:01.259Z,1013.15
2022-11-15T06:17:01.195Z,1013.09
2022-11-15T06:18:01.052Z,1013.12
2022-11-15T06:19:10.642Z,1013.15
2022-11-15T06:20:01.203Z,1013.13
2022-11-15T06:21:01.706Z,1013.1
2022-11-15T06:22:01.998Z,1013.17
2022-11-15T06:23:02.167Z,1013.15
2022-11-15T06:24:13.586Z,1013.16
2022-11-15T06:25:05.362Z,1013.19
2022-11-15T06:26:01.509Z,1013.17
2022-11-15T06:27:01.529Z,1013.21
2022-11-15T06:28:02.021Z,1013.2
2022-11-15T06:29:16.547Z,1013.24
2022-11-15T06:30:01.355Z,1013.27
2022-11-15T06:31:04.131Z,1013.25
2022-11-15T06:32:01.424Z,1013.26
2022-11-15T06:33:00.744Z,1013.28
2022-11-15T06:34:00.445Z,1013.3
2022-11-15T06:35:00.048Z,1013.3
2022-11-15T06:35:59.950Z,1013.26
2022-11-15T06:36:59.642Z,1013.32
2022-11-15T06:38:01.229Z,1013.32
2022-11-15T06:39:01.484Z,1013.31
2022-11-15T06:40:01.443Z,1013.33
2022-11-15T06:41:01.103Z,1013.38
2022-11-15T06:42:01.109Z,1013.34
2022-11-15T06:43:01.719Z,1013.35
2022-11-15T06:44:01.742Z,1013.36
2022-11-15T06:45:01.513Z,1013.34
2022-11-15T06:46:01.249Z,1013.34
2022-11-15T06:47:01.340Z,1013.31
2022-11-15T06:48:01.875Z,1013.38
2022-11-15T06:49:08.252Z,1013.38
2022-11-15T06:50:01.067Z,1013.39
2022-11-15T06:51:00.932Z,1013.42
2022-11-15T06:52:00.737Z,1013.43
2022-11-15T06:53:00.459Z,1013.43
2022-11-15T06:54:00.258Z,1013.52
2022-11-15T06:55:00.324Z,1013.52
2022-11-15T06:55:59.881Z,1013.49
2022-11-15T06:57:01.953Z,1013.52
2022-11-15T06:58:01.793Z,1013.52
2022-11-15T06:59:01.246Z,1013.51
2022-11-15T07:00:01.312Z,1013.53
2022-11-15T07:01:01.108Z,1013.52
2022-11-15T07:02:01.782Z,1013.5
2022-11-15T07:03:01.437Z,1013.53
2022-11-15T07:04:01.156Z,1013.53
2022-11-15T07:05:00.790Z,1013.55
2022-11-15T07:06:06.644Z,1013.54
2022-11-15T07:07:01.140Z,1013.57
2022-11-15T07:08:01.300Z,1013.55
2022-11-15T07:09:01.041Z,1013.54
2022-11-15T07:10:01.053Z,1013.52
2022-11-15T07:11:01.084Z,1013.54
2022-11-15T07:12:07.266Z,1013.54
2022-11-15T07:13:00.920Z,1013.57
2022-11-15T07:14:01.519Z,1013.52
2022-11-15T07:15:00.675Z,1013.56
2022-11-15T07:16:00.317Z,1013.56
2022-11-15T07:16:59.982Z,1013.55
2022-11-15T07:17:59.601Z,1013.54
2022-11-15T07:19:01.224Z,1013.58
2022-11-15T07:20:01.302Z,1013.52
2022-11-15T07:21:01.334Z,1013.51
2022-11-15T07:22:01.964Z,1013.49
2022-11-15T07:23:02.007Z,1013.48
2022-11-15T07:24:01.241Z,1013.44
2022-11-15T07:25:01.053Z,1013.47
2022-11-15T07:26:01.120Z,1013.48
2022-11-15T07:27:01.087Z,1013.46
2022-11-15T07:28:02.258Z,1013.46
2022-11-15T07:29:01.613Z,1013.42
2022-11-15T07:30:01.201Z,1013.45
2022-11-15T07:31:02.089Z,1013.46
2022-11-15T07:32:01.230Z,1013.45
2022-11-15T07:33:00.911Z,1013.45
2022-11-15T07:34:01.317Z,1013.45
2022-11-15T07:35:01.156Z,1013.42
2022-11-15T07:36:01.162Z,1013.48
2022-11-15T07:37:01.277Z,1013.42
2022-11-15T07:38:01.069Z,1013.43
2022-11-15T07:39:01.330Z,1013.42
2022-11-15T07:40:01.339Z,1013.43
2022-11-15T07:41:02.873Z,1013.41
2022-11-15T07:42:01.515Z,1013.41
2022-11-15T07:43:01.371Z,1013.39
2022-11-15T07:44:01.405Z,1013.42
2022-11-15T07:45:01.288Z,1013.41
2022-11-15T07:46:01.111Z,1013.37
2022-11-15T07:47:01.527Z,1013.4
2022-11-15T07:48:01.124Z,1013.41
2022-11-15T07:49:01.400Z,1013.35
2022-11-15T07:50:01.734Z,1013.32
2022-11-15T07:51:01.822Z,1013.34
2022-11-15T07:52:04.159Z,1013.3
2022-11-15T07:53:01.553Z,1013.33
2022-11-15T07:54:01.330Z,1013.33
2022-11-15T07:55:03.759Z,1013.3
2022-11-15T07:56:01.244Z,1013.32
2022-11-15T07:57:06.616Z,1013.27
2022-11-15T07:58:01.763Z,1013.25
2022-11-15T07:59:02.051Z,1013.27
2022-11-15T08:00:06.162Z,1013.28
2022-11-15T08:01:01.544Z,1013.22
2022-11-15T08:02:01.311Z,1013.21
2022-11-15T08:03:01.174Z,1013.21
2022-11-15T08:04:01.132Z,1013.23
2022-11-15T08:05:11.247Z,1013.23
2022-11-15T08:06:01.531Z,1013.22
2022-11-15T08:07:01.175Z,1013.25
2022-11-15T08:08:02.864Z,1013.21
2022-11-15T08:09:01.484Z,1013.21
2022-11-15T08:10:14.233Z,1013.21
2022-11-15T08:11:01.350Z,1013.19
2022-11-15T08:12:02.002Z,1013.19
2022-11-15T08:13:02.189Z,1013.17
2022-11-15T08:14:00.891Z,1013.16
2022-11-15T08:15:16.587Z,1013.18
2022-11-15T08:16:01.199Z,1013.2
2022-11-15T08:17:01.095Z,1013.21
2022-11-15T08:18:01.151Z,1013.2
2022-11-15T08:19:01.042Z,1013.19
2022-11-15T08:20:01.117Z,1013.2
2022-11-15T08:21:01.263Z,1013.21
2022-11-15T08:22:01.262Z,1013.2
2022-11-15T08:23:01.941Z,1013.21
2022-11-15T08:24:00.933Z,1013.22
2022-11-15T08:25:00.636Z,1013.16
2022-11-15T08:26:00.330Z,1013.17
2022-11-15T08:26:59.961Z,1013.17
2022-11-15T08:27:59.621Z,1013.12
2022-11-15T08:29:01.193Z,1013.13
2022-11-15T08:30:01.401Z,1013.1
2022-11-15T08:31:02.107Z,1013.08
2022-11-15T08:32:01.529Z,1013.08
2022-11-15T08:33:01.265Z,1013.1
2022-11-15T08:34:01.898Z,1013.09
2022-11-15T08:35:01.079Z,1013.07
2022-11-15T08:36:01.057Z,1013.09
2022-11-15T08:37:00.700Z,1013.1
2022-11-15T08:38:00.420Z,1013.08
2022-11-15T08:39:00.226Z,1013.07
2022-11-15T08:39:59.912Z,1013.07
2022-11-15T08:40:59.619Z,1013.09
2022-11-15T08:42:02.994Z,1013.08
2022-11-15T08:43:01.350Z,1013.1
2022-11-15T08:44:01.068Z,1013.08
2022-11-15T08:45:01.072Z,1013.11
2022-11-15T08:46:01.078Z,1013.11
2022-11-15T08:47:01.463Z,1013.08
2022-11-15T08:48:01.217Z,1013.09
2022-11-15T08:49:01.101Z,1013.09
2022-11-15T08:50:00.491Z,1013.1
2022-11-15T08:51:00.088Z,1013.05
2022-11-15T08:51:59.713Z,1012.99
2022-11-15T08:53:01.430Z,1013.01
2022-11-15T08:54:02.039Z,1012.99
2022-11-15T08:55:02.051Z,1013.06
2022-11-15T08:56:01.536Z,1012.99
2022-11-15T08:57:01.144Z,1013.03
2022-11-15T08:58:01.152Z,1013.06
2022-11-15T08:59:00.736Z,1013.05
2022-11-15T09:00:00.339Z,1013
2022-11-15T09:01:00.034Z,1013.02
2022-11-15T09:01:59.686Z,1013
2022-11-15T09:03:01.330Z,1013.04
2022-11-15T09:04:01.996Z,1013.06
2022-11-15T09:05:01.940Z,1013
2022-11-15T09:06:02.084Z,1012.98
2022-11-15T09:07:01.184Z,1013.01
2022-11-15T09:08:06.553Z,1013.04
2022-11-15T09:09:01.040Z,1013.05
2022-11-15T09:10:01.144Z,1013.01
2022-11-15T09:11:01.135Z,1012.99
2022-11-15T09:12:02.976Z,1013
2022-11-15T09:13:01.525Z,1012.94
2022-11-15T09:14:02.154Z,1012.99
2022-11-15T09:15:01.135Z,1012.95
2022-11-15T09:16:01.062Z,1012.98
2022-11-15T09:17:01.066Z,1012.93
2022-11-15T09:18:00.475Z,1012.93
2022-11-15T09:19:00.152Z,1012.93
2022-11-15T09:19:59.872Z,1012.92
2022-11-15T09:21:01.837Z,1012.93
2022-11-15T09:22:01.278Z,1012.96
2022-11-15T09:23:03.944Z,1012.93
2022-11-15T09:24:02.341Z,1012.94
2022-11-15T09:25:01.141Z,1012.92
2022-11-15T09:26:01.138Z,1012.96
2022-11-15T09:27:01.315Z,1012.94
2022-11-15T09:28:01.146Z,1012.9
2022-11-15T09:29:01.148Z,1012.93
2022-11-15T09:30:01.151Z,1012.94
2022-11-15T09:31:01.888Z,1012.91
2022-11-15T09:32:01.070Z,1012.92
2022-11-15T09:33:01.080Z,1012.89
2022-11-15T09:34:00.752Z,1012.89
2022-11-15T09:35:00.390Z,1012.89
2022-11-15T09:35:59.964Z,1012.92
2022-11-15T09:36:59.869Z,1012.91
2022-11-15T09:37:59.473Z,1012.9
2022-11-15T09:39:01.118Z,1012.91
2022-11-15T09:40:01.322Z,1012.88
2022-11-15T09:41:08.507Z,1012.93
2022-11-15T09:42:01.124Z,1012.91
2022-11-15T09:43:01.128Z,1012.87
2022-11-15T09:44:01.135Z,1012.94
2022-11-15T09:45:01.150Z,1012.92
2022-11-15T09:46:10.388Z,1012.94
2022-11-15T09:47:01.403Z,1012.93
2022-11-15T09:48:01.080Z,1012.92
2022-11-15T09:49:01.085Z,1012.93
2022-11-15T09:50:01.101Z,1012.91
2022-11-15T09:51:13.662Z,1012.93
2022-11-15T09:52:01.102Z,1012.92
2022-11-15T09:53:01.825Z,1012.92
2022-11-15T09:55:01.109Z,1012.96
2022-11-15T09:56:16.424Z,1012.98
2022-11-15T09:57:01.169Z,1012.98
2022-11-15T09:58:01.828Z,1012.99
2022-11-15T09:59:01.181Z,1012.98
2022-11-15T10:00:23.848Z,1012.98
2022-11-15T10:01:02.203Z,1012.95
2022-11-15T10:02:01.204Z,1012.97
2022-11-15T10:03:02.487Z,1012.97
2022-11-15T10:04:01.987Z,1012.93
2022-11-15T10:05:02.614Z,1012.94
2022-11-15T10:06:01.465Z,1012.92
2022-11-15T10:07:01.136Z,1012.96
2022-11-15T10:08:01.098Z,1012.88
2022-11-15T10:09:01.110Z,1012.9
2022-11-15T10:10:01.101Z,1012.89
2022-11-15T10:11:30.501Z,1012.9
2022-11-15T10:12:01.108Z,1012.89
2022-11-15T10:13:01.120Z,1012.91
2022-11-15T10:14:00.823Z,1012.87
2022-11-15T10:15:01.669Z,1012.88
2022-11-15T10:16:01.816Z,1012.86
2022-11-15T10:17:01.442Z,1012.83
2022-11-15T10:18:02.589Z,1012.87
2022-11-15T10:19:01.519Z,1012.86
2022-11-15T10:20:05.701Z,1012.78
2022-11-15T10:21:01.443Z,1012.81
2022-11-15T10:22:01.147Z,1012.79
2022-11-15T10:23:01.145Z,1012.77
2022-11-15T10:24:01.042Z,1012.74
2022-11-15T10:25:01.060Z,1012.71
2022-11-15T10:26:06.420Z,1012.73
2022-11-15T10:27:01.115Z,1012.7
2022-11-15T10:28:01.501Z,1012.66
2022-11-15T10:29:01.121Z,1012.66
2022-11-15T10:30:01.122Z,1012.63
2022-11-15T10:31:01.062Z,1012.65
2022-11-15T10:32:00.625Z,1012.6
2022-11-15T10:33:00.297Z,1012.62
2022-11-15T10:34:00.363Z,1012.66
2022-11-15T10:35:02.114Z,1012.56
2022-11-15T10:36:01.073Z,1012.62
2022-11-15T10:37:01.472Z,1012.59
2022-11-15T10:38:02.092Z,1012.6
2022-11-15T10:39:01.115Z,1012.57
2022-11-15T10:40:01.123Z,1012.52
2022-11-15T10:41:01.831Z,1012.55
2022-11-15T10:42:06.440Z,1012.5
2022-11-15T10:43:01.394Z,1012.46
2022-11-15T10:44:02.131Z,1012.51
2022-11-15T10:45:02.216Z,1012.51
2022-11-15T10:46:13.678Z,1012.45
2022-11-15T10:47:01.143Z,1012.44
2022-11-15T10:48:01.135Z,1012.4
2022-11-15T10:49:01.148Z,1012.39
2022-11-15T10:50:01.187Z,1012.4
2022-11-15T10:51:01.383Z,1012.39
2022-11-15T10:52:01.208Z,1012.37
2022-11-15T10:53:01.069Z,1012.37
2022-11-15T10:54:01.460Z,1012.35
2022-11-15T10:55:01.098Z,1012.31
2022-11-15T10:56:01.091Z,1012.31
2022-11-15T10:57:01.089Z,1012.32
2022-11-15T10:58:01.090Z,1012.29
2022-11-15T10:59:01.115Z,1012.24
2022-11-15T11:00:01.177Z,1012.24
2022-11-15T11:01:01.155Z,1012.22
2022-11-15T11:02:01.785Z,1012.21
2022-11-15T11:03:01.224Z,1012.2
2022-11-15T11:04:01.131Z,1012.19
2022-11-15T11:05:01.173Z,1012.22
2022-11-15T11:06:01.153Z,1012.2
2022-11-15T11:07:01.179Z,1012.16
2022-11-15T11:08:01.150Z,1012.17
2022-11-15T11:09:01.080Z,1012.2
2022-11-15T11:10:01.081Z,1012.16
2022-11-15T11:11:03.585Z,1012.14
2022-11-15T11:12:01.907Z,1012.15
2022-11-15T11:13:01.105Z,1012.15
2022-11-15T11:14:01.996Z,1012.09
2022-11-15T11:15:00.792Z,1012.1
2022-11-15T11:16:00.477Z,1012.11
2022-11-15T11:17:03.001Z,1012.1
2022-11-15T11:18:01.840Z,1012.09
2022-11-15T11:19:01.167Z,1012.05
2022-11-15T11:20:01.197Z,1012.04
2022-11-15T11:21:01.186Z,1011.99
2022-11-15T11:22:06.166Z,1012.01
2022-11-15T11:23:01.600Z,1011.99
2022-11-15T11:24:01.496Z,1011.98
2022-11-15T11:25:01.202Z,1011.94
2022-11-15T11:26:02.175Z,1011.91
2022-11-15T11:27:08.343Z,1011.88
2022-11-15T11:28:01.821Z,1011.89
2022-11-15T11:29:01.151Z,1011.84
2022-11-15T11:30:01.110Z,1011.85
2022-11-15T11:31:01.106Z,1011.83
2022-11-15T11:32:10.637Z,1011.85
2022-11-15T11:33:01.507Z,1011.82
2022-11-15T11:34:01.176Z,1011.81
2022-11-15T11:35:01.141Z,1011.78
2022-11-15T11:36:01.957Z,1011.79
2022-11-15T11:37:13.290Z,1011.79
2022-11-15T11:38:01.251Z,1011.73
2022-11-15T11:39:01.207Z,1011.77
2022-11-15T11:40:02.944Z,1011.74
2022-11-15T11:41:02.681Z,1011.7
2022-11-15T11:42:15.849Z,1011.66
2022-11-15T11:43:02.076Z,1011.69
2022-11-15T11:44:02.598Z,1011.65
2022-11-15T11:45:01.094Z,1011.66
2022-11-15T11:46:01.113Z,1011.62
2022-11-15T11:47:01.158Z,1011.58
2022-11-15T11:48:01.208Z,1011.63
2022-11-15T11:49:03.964Z,1011.57
2022-11-15T11:50:01.859Z,1011.6
2022-11-15T11:51:01.206Z,1011.57
2022-11-15T11:52:01.191Z,1011.52
2022-11-15T11:53:04.174Z,1011.54
2022-11-15T11:54:01.849Z,1011.53
2022-11-15T11:55:01.173Z,1011.51
2022-11-15T11:56:01.208Z,1011.56
2022-11-15T11:57:00.763Z,1011.54
2022-11-15T11:58:00.332Z,1011.56
2022-11-15T11:58:59.923Z,1011.55
2022-11-15T11:59:59.659Z,1011.51
2022-11-15T12:01:01.823Z,1011.49
2022-11-15T12:02:01.282Z,1011.52
2022-11-15T12:03:04.625Z,1011.56
2022-11-15T12:04:02.328Z,1011.47
2022-11-15T12:05:01.790Z,1011.43
2022-11-15T12:06:01.133Z,1011.41
2022-11-15T12:07:01.249Z,1011.4
2022-11-15T12:08:04.159Z,1011.38
2022-11-15T12:09:02.044Z,1011.37